createdAt,value
2022-10-24T00:02:44.107Z,99714.91
2022-10-24T00:05:18.203Z,99740.44
2022-10-24T00:08:16.273Z,99729.09
2022-10-24T00:11:01.003Z,99755.66
2022-10-24T00:13:50.356Z,99752.16
2022-10-24T00:16:18.521Z,99761.81
2022-10-24T00:18:48.572Z,99758.31
2022-10-24T00:21:16.694Z,99767.97
2022-10-24T00:23:46.327Z,99782.38
2022-10-24T00:26:16.097Z,99758.31
2022-10-24T00:28:46.836Z,99784.41
2022-10-24T00:31:16.597Z,99786.91
2022-10-24T00:33:44.806Z,99781.34
2022-10-24T00:36:13.314Z,99801.69
2022-10-24T00:38:41.345Z,99800.88
2022-10-24T00:41:16.077Z,99800.00
2022-10-24T00:43:44.210Z,99806.38
2022-10-24T00:46:13.347Z,99813.13
2022-10-24T00:48:45.666Z,99797.03
2022-10-24T00:51:21.542Z,99803.59
2022-10-24T00:56:32.301Z,99821.72
2022-10-24T00:59:00.693Z,99826.63
2022-10-24T01:01:28.710Z,99831.88
2022-10-24T01:03:57.875Z,99837.16
2022-10-24T01:06:33.292Z,99801.25
2022-10-24T01:09:08.401Z,99827.56
2022-10-24T01:11:55.087Z,99829.13
2022-10-24T01:14:31.496Z,99823.16
2022-10-24T01:17:06.803Z,99848.03
2022-10-24T01:19:49.061Z,99843.47
2022-10-24T01:22:18.557Z,99845.31
2022-10-24T01:25:03.785Z,99860.75
2022-10-24T01:30:49.191Z,99865.28
2022-10-24T01:33:20.733Z,99867.81
2022-10-24T01:35:51.861Z,99871.13
2022-10-24T01:38:27.469Z,99864.22
2022-10-24T01:40:58.495Z,99873.03
2022-10-24T01:43:29.347Z,99878.22
2022-10-24T01:46:04.246Z,99875.53
2022-10-24T01:48:45.013Z,99877.38
2022-10-24T01:51:19.992Z,99859.41
2022-10-24T01:53:49.774Z,99874.81
2022-10-24T01:56:20.698Z,99891.34
2022-10-24T01:58:49.274Z,99884.72
2022-10-24T02:01:22.358Z,99897.06
2022-10-24T02:03:52.042Z,99891.34
2022-10-24T02:06:31.094Z,99892.53
2022-10-24T02:11:35.392Z,99897.53
2022-10-24T02:14:06.448Z,99899.56
2022-10-24T02:16:36.861Z,99902.25
2022-10-24T02:19:04.849Z,99907.59
2022-10-24T02:21:43.951Z,99904.50
2022-10-24T02:24:15.319Z,99899.09
2022-10-24T02:26:57.310Z,99907.72
2022-10-24T02:33:22.062Z,99909.66
2022-10-24T02:36:19.394Z,99910.53
2022-10-24T02:39:23.402Z,99915.09
2022-10-24T02:46:27.279Z,99916.38
2022-10-24T02:48:59.301Z,99897.50
2022-10-24T02:51:39.960Z,99909.50
2022-10-24T02:54:50.137Z,99913.75
2022-10-24T03:02:14.916Z,99924.81
2022-10-24T03:04:50.437Z,99907.56
2022-10-24T03:07:48.952Z,99925.31
2022-10-24T03:10:25.394Z,99906.28
2022-10-24T03:12:57.843Z,99924.28
2022-10-24T03:15:29.739Z,99909.28
2022-10-24T03:17:58.121Z,99927.41
2022-10-24T03:20:30.391Z,99910.94
2022-10-24T03:23:02.458Z,99924.97
2022-10-24T03:25:32.015Z,99942.28
2022-10-24T03:30:48.043Z,99950.97
2022-10-24T03:33:16.372Z,99949.94
2022-10-24T03:35:48.202Z,99955.31
2022-10-24T03:38:16.600Z,99950.63
2022-10-24T03:43:14.531Z,99934.53
2022-10-24T03:45:42.666Z,99957.19
2022-10-24T03:48:10.616Z,99961.16
2022-10-24T03:50:41.118Z,99947.31
2022-10-24T03:53:10.532Z,99972.44
2022-10-24T03:55:39.541Z,99965.25
2022-10-24T03:58:07.568Z,99986.66
2022-10-24T04:00:39.467Z,99976.59
2022-10-24T04:03:11.601Z,99979.91
2022-10-24T04:05:40.917Z,99981.56
2022-10-24T04:08:18.505Z,99985.47
2022-10-24T04:10:46.687Z,99988.78
2022-10-24T04:13:22.006Z,99987.78
2022-10-24T04:15:50.825Z,100003.41
2022-10-24T04:18:18.864Z,100003.03
2022-10-24T04:20:51.302Z,100003.84
2022-10-24T04:23:21.246Z,100010.03
2022-10-24T04:25:58.245Z,100009.38
2022-10-24T04:28:27.180Z,100006.72
2022-10-24T04:30:56.430Z,99999.66
2022-10-24T04:33:25.823Z,100015.53
2022-10-24T04:35:56.085Z,100002.53
2022-10-24T04:38:29.877Z,100008.31
2022-10-24T04:41:01.254Z,100020.63
2022-10-24T04:43:30.518Z,100016.72
2022-10-24T04:45:58.675Z,100012.53
2022-10-24T04:48:26.679Z,100025.53
2022-10-24T04:50:54.757Z,100018.06
2022-10-24T04:53:22.753Z,100028.38
2022-10-24T04:56:01.830Z,100027.31
2022-10-24T04:58:30.616Z,100027.50
2022-10-24T05:00:58.867Z,100006.63
2022-10-24T05:03:26.922Z,100030.72
2022-10-24T05:05:54.896Z,100039.72
2022-10-24T05:08:22.963Z,100051.22
2022-10-24T05:10:53.121Z,100054.69
2022-10-24T05:13:23.560Z,100063.94
2022-10-24T05:15:55.911Z,100064.94
2022-10-24T05:18:27.865Z,100065.13
2022-10-24T05:20:58.205Z,100060.56
2022-10-24T05:23:41.019Z,100066.28
2022-10-24T05:26:09.108Z,100064.78
2022-10-24T05:28:38.505Z,100072.91
2022-10-24T05:31:09.503Z,100086.25
2022-10-24T05:33:37.608Z,100084.78
2022-10-24T05:36:06.468Z,100080.84
2022-10-24T05:38:34.609Z,100094.81
2022-10-24T05:41:02.598Z,100086.38
2022-10-24T05:46:21.415Z,100103.41
2022-10-24T05:48:51.974Z,100100.94
2022-10-24T05:51:20.109Z,100095.16
2022-10-24T05:53:48.135Z,100094.94
2022-10-24T05:56:18.458Z,100099.09
2022-10-24T05:58:49.387Z,100108.75
2022-10-24T06:01:18.928Z,100102.13
2022-10-24T06:03:47.108Z,100114.47
2022-10-24T06:06:16.602Z,100102.13
2022-10-24T06:08:46.944Z,100109.97
2022-10-24T06:11:15.071Z,100112.81
2022-10-24T06:13:43.137Z,100112.19
2022-10-24T06:16:11.672Z,100114.03
2022-10-24T06:18:46.325Z,100119.19
2022-10-24T06:21:15.998Z,100112.38
2022-10-24T06:23:44.323Z,100116.53
2022-10-24T06:26:14.231Z,100096.66
2022-10-24T06:28:42.897Z,100126.44
2022-10-24T06:31:12.822Z,100117.03
2022-10-24T06:33:41.336Z,100125.03
2022-10-24T06:36:12.272Z,100113.75
2022-10-24T06:38:40.459Z,100135.16
2022-10-24T06:41:08.833Z,100126.50
2022-10-24T06:43:37.172Z,100126.59
2022-10-24T06:46:07.879Z,100137.28
2022-10-24T06:48:36.337Z,100136.00
2022-10-24T06:51:07.070Z,100155.06
2022-10-24T06:53:39.165Z,100150.72
2022-10-24T06:56:15.629Z,100152.38
2022-10-24T06:58:45.665Z,100148.47
2022-10-24T07:01:17.423Z,100131.66
2022-10-24T07:03:48.258Z,100154.81
2022-10-24T07:06:17.177Z,100151.84
2022-10-24T07:08:54.463Z,100169.69
2022-10-24T07:11:22.554Z,100158.66
2022-10-24T07:13:50.644Z,100166.00
2022-10-24T07:16:19.878Z,100162.72
2022-10-24T07:18:51.140Z,100173.00
2022-10-24T07:21:21.349Z,100170.16
2022-10-24T07:24:06.185Z,100161.41
2022-10-24T07:26:34.157Z,100188.94
2022-10-24T07:29:04.764Z,100187.53
2022-10-24T07:31:37.902Z,100191.50
2022-10-24T07:34:08.444Z,100193.41
2022-10-24T07:36:41.475Z,100187.59
2022-10-24T07:39:20.777Z,100189.91
2022-10-24T07:41:49.301Z,100194.16
2022-10-24T07:44:17.524Z,100201.19
2022-10-24T07:46:50.110Z,100181.31
2022-10-24T07:49:22.174Z,100192.31
2022-10-24T07:51:57.642Z,100206.34
2022-10-24T07:54:30.653Z,100212.88
2022-10-24T07:57:04.639Z,100209.56
2022-10-24T07:59:47.791Z,100209.69
2022-10-24T08:02:17.110Z,100209.06
2022-10-24T08:04:45.540Z,100218.22
2022-10-24T08:07:14.211Z,100227.31
2022-10-24T08:12:28.364Z,100237.31
2022-10-24T08:14:59.882Z,100223.25
2022-10-24T08:17:28.140Z,100234.31
2022-10-24T08:19:57.776Z,100221.72
2022-10-24T08:22:28.205Z,100250.88
2022-10-24T08:24:58.021Z,100248.25
2022-10-24T08:27:27.507Z,100245.81
2022-10-24T08:29:55.533Z,100256.84
2022-10-24T08:32:23.536Z,100259.56
2022-10-24T08:34:51.500Z,100261.84
2022-10-24T08:37:19.465Z,100270.72
2022-10-24T08:39:50.740Z,100268.88
2022-10-24T08:42:20.171Z,100254.22
2022-10-24T08:44:48.241Z,100278.16
2022-10-24T08:47:22.612Z,100280.59
2022-10-24T08:49:55.216Z,100266.19
2022-10-24T08:52:28.289Z,100281.47
2022-10-24T08:54:57.123Z,100284.53
2022-10-24T08:57:35.254Z,100287.06
2022-10-24T09:00:08.761Z,100271.63
2022-10-24T09:02:42.422Z,100285.75
2022-10-24T09:05:28.419Z,100282.50
2022-10-24T09:08:04.208Z,100285.03
2022-10-24T09:10:38.064Z,100280.31
2022-10-24T09:13:13.548Z,100283.47
2022-10-24T09:15:42.009Z,100282.66
2022-10-24T09:18:15.181Z,100292.28
2022-10-24T09:20:44.390Z,100284.94
2022-10-24T09:23:13.084Z,100286.22
2022-10-24T09:25:43.707Z,100289.53
2022-10-24T09:28:13.169Z,100302.50
2022-10-24T09:30:43.737Z,100290.56
2022-10-24T09:33:22.986Z,100296.97
2022-10-24T09:35:53.915Z,100296.19
2022-10-24T09:38:34.652Z,100296.19
2022-10-24T09:41:05.054Z,100310.56
2022-10-24T09:43:59.236Z,100322.63
2022-10-24T09:46:51.731Z,100313.50
2022-10-24T09:49:40.307Z,100313.31
2022-10-24T09:52:19.910Z,100317.28
2022-10-24T09:54:52.102Z,100306.63
2022-10-24T09:57:21.506Z,100319.38
2022-10-24T10:00:29.813Z,100343.06
2022-10-24T10:03:33.622Z,100351.47
2022-10-24T10:06:28.567Z,100349.88
2022-10-24T10:09:05.304Z,100363.63
2022-10-24T10:12:00.778Z,100358.47
2022-10-24T10:14:50.254Z,100361.19
2022-10-24T10:17:21.967Z,100346.56
2022-10-24T10:20:08.522Z,100368.41
2022-10-24T10:22:55.260Z,100365.25
2022-10-24T10:25:31.218Z,100356.28
2022-10-24T10:28:02.402Z,100365.44
2022-10-24T10:31:00.290Z,100379.91
2022-10-24T10:33:47.067Z,100385.38
2022-10-24T10:36:22.093Z,100369.72
2022-10-24T10:39:54.173Z,100387.88
2022-10-24T10:42:30.524Z,100384.81
2022-10-24T10:48:59.514Z,100389.94
2022-10-24T10:56:20.708Z,100379.44
2022-10-24T10:59:58.017Z,100397.72
2022-10-24T11:06:36.076Z,100389.28
2022-10-24T11:26:15.751Z,100409.34
2022-10-24T11:29:13.268Z,100393.53
2022-10-24T11:32:14.243Z,100418.47
2022-10-24T11:34:52.187Z,100427.81
2022-10-24T11:37:30.503Z,100422.47
2022-10-24T11:40:13.620Z,100408.41
2022-10-24T11:43:16.310Z,100431.16
2022-10-24T11:45:54.716Z,100438.56
2022-10-24T11:48:44.895Z,100420.50
2022-10-24T11:51:26.581Z,100440.34
2022-10-24T11:54:13.358Z,100445.28
2022-10-24T11:56:45.826Z,100422.25
2022-10-24T11:59:31.709Z,100440.44
2022-10-24T12:02:45.489Z,100454.03
2022-10-24T12:05:25.863Z,100434.13
2022-10-24T12:08:37.040Z,100450.28
2022-10-24T12:11:16.730Z,100447.28
2022-10-24T12:16:41.013Z,100447.25
2022-10-24T12:19:20.449Z,100454.59
2022-10-24T12:21:49.796Z,100444.38
2022-10-24T12:24:44.065Z,100460.44
2022-10-24T12:27:29.079Z,100464.44
2022-10-24T12:30:25.517Z,100450.66
2022-10-24T12:33:27.733Z,100434.91
2022-10-24T12:36:10.704Z,100459.88
2022-10-24T12:39:29.283Z,100429.34
2022-10-24T12:42:00.541Z,100452.94
2022-10-24T12:45:02.078Z,100461.69
2022-10-24T12:47:38.741Z,100431.44
2022-10-24T12:50:45.009Z,100460.47
2022-10-24T12:54:04.173Z,100460.69
2022-10-24T12:56:33.027Z,100459.63
2022-10-24T12:59:05.813Z,100467.47
2022-10-24T13:01:43.141Z,100429.50
2022-10-24T13:04:47.647Z,100427.03
2022-10-24T13:07:57.700Z,100464.31
2022-10-24T13:10:36.002Z,100456.84
2022-10-24T13:13:19.026Z,100464.28
2022-10-24T13:15:51.285Z,100462.63
2022-10-24T13:18:37.769Z,100451.41
2022-10-24T13:24:28.130Z,100456.94
2022-10-24T13:27:35.946Z,100471.84
2022-10-24T13:30:49.568Z,100475.13
2022-10-24T13:33:41.543Z,100478.63
2022-10-24T13:36:18.182Z,100476.31
2022-10-24T13:38:56.962Z,100471.56
2022-10-24T13:41:30.054Z,100489.59
2022-10-24T13:44:05.109Z,100488.38
2022-10-24T13:46:37.007Z,100469.19
2022-10-24T13:49:05.338Z,100471.03
2022-10-24T13:51:37.660Z,100489.22
2022-10-24T13:54:12.114Z,100496.88
2022-10-24T13:57:02.516Z,100485.88
2022-10-24T13:59:37.152Z,100486.31
2022-10-24T14:02:07.999Z,100482.34
2022-10-24T14:04:36.393Z,100494.53
2022-10-24T14:07:05.051Z,100486.88
2022-10-24T14:09:47.525Z,100507.78
2022-10-24T14:12:27.047Z,100499.91
2022-10-24T14:14:56.823Z,100497.63
2022-10-24T14:17:27.872Z,100495.38
2022-10-24T14:19:57.672Z,100495.75
2022-10-24T14:22:28.160Z,100500.28
2022-10-24T14:24:58.148Z,100513.13
2022-10-24T14:27:28.627Z,100501.94
2022-10-24T14:30:19.032Z,100510.63
2022-10-24T14:32:51.033Z,100513.91
2022-10-24T14:35:20.802Z,100500.25
2022-10-24T14:37:49.633Z,100516.81
2022-10-24T14:40:24.154Z,100508.75
2022-10-24T14:42:54.638Z,100518.91
2022-10-24T14:45:25.929Z,100491.22
2022-10-24T14:47:58.894Z,100518.16
2022-10-24T14:50:38.571Z,100522.09
2022-10-24T14:53:06.742Z,100502.22
2022-10-24T14:55:34.918Z,100530.97
2022-10-24T14:58:04.784Z,100514.41
2022-10-24T15:00:39.684Z,100536.34
2022-10-24T15:03:07.914Z,100510.72
2022-10-24T15:05:41.182Z,100539.66
2022-10-24T15:08:54.370Z,100540.06
2022-10-24T15:11:25.053Z,100541.66
2022-10-24T15:14:06.431Z,100533.97
2022-10-24T15:16:39.938Z,100542.28
2022-10-24T15:19:08.418Z,100540.59
2022-10-24T15:21:42.462Z,100550.75
2022-10-24T15:24:20.782Z,100536.69
2022-10-24T15:26:48.948Z,100541.22
2022-10-24T15:34:44.764Z,100551.50
2022-10-24T15:37:21.615Z,100562.59
2022-10-24T15:40:45.881Z,100567.56
2022-10-24T15:47:34.651Z,100574.19
2022-10-24T15:50:14.858Z,100565.00
2022-10-24T15:52:51.475Z,100587.47
2022-10-24T15:55:27.648Z,100593.47
2022-10-24T16:00:58.829Z,100599.31
2022-10-24T16:03:30.059Z,100611.19
2022-10-24T16:06:03.555Z,100602.50
2022-10-24T16:08:34.542Z,100607.69
2022-10-24T16:11:15.310Z,100607.25
2022-10-24T16:13:43.517Z,100599.22
2022-10-24T16:16:12.259Z,100606.81
2022-10-24T16:18:42.012Z,100614.69
2022-10-24T16:21:59.041Z,100601.22
2022-10-24T16:24:29.314Z,100619.47
2022-10-24T16:26:57.438Z,100624.78
2022-10-24T16:29:25.387Z,100627.81
2022-10-24T16:35:21.822Z,100626.22
2022-10-24T16:37:58.859Z,100627.25
2022-10-24T16:40:29.111Z,100638.34
2022-10-24T16:51:47.768Z,100656.31
2022-10-24T16:54:23.231Z,100646.66
2022-10-24T16:59:53.347Z,100659.63
2022-10-24T17:02:21.405Z,100659.44
2022-10-24T17:04:49.364Z,100659.78
2022-10-24T17:07:18.961Z,100650.47
2022-10-24T17:09:47.072Z,100672.47
2022-10-24T17:12:20.056Z,100675.75
2022-10-24T17:14:48.101Z,100672.47
2022-10-24T17:17:37.743Z,100677.44
2022-10-24T17:20:09.074Z,100679.28
2022-10-24T17:22:37.486Z,100678.81
2022-10-24T17:25:30.404Z,100695.31
2022-10-24T17:28:01.665Z,100681.66
2022-10-24T17:30:30.395Z,100688.78
2022-10-24T17:32:58.797Z,100701.59
2022-10-24T17:35:54.481Z,100712.13
2022-10-24T17:38:34.655Z,100711.47
2022-10-24T17:41:08.126Z,100700.66
2022-10-24T17:43:38.012Z,100721.34
2022-10-24T17:46:06.527Z,100713.53
2022-10-24T17:48:34.853Z,100728.47
2022-10-24T17:51:07.129Z,100699.56
2022-10-24T17:53:57.550Z,100726.09
2022-10-24T17:56:26.024Z,100709.69
2022-10-24T17:59:12.669Z,100742.16
2022-10-24T18:01:43.560Z,100739.63
2022-10-24T18:04:15.227Z,100749.03
2022-10-24T18:06:43.782Z,100732.88
2022-10-24T18:09:12.073Z,100756.03
2022-10-24T18:11:56.100Z,100763.63
2022-10-24T18:14:25.639Z,100760.94
2022-10-24T18:16:56.577Z,100757.25
2022-10-24T18:19:25.936Z,100758.78
2022-10-24T18:27:46.704Z,100770.69
2022-10-24T18:30:19.419Z,100786.03
2022-10-24T18:35:44.693Z,100782.34
2022-10-24T18:38:30.261Z,100795.50
2022-10-24T18:40:58.798Z,100793.22
2022-10-24T18:43:45.160Z,100766.75
2022-10-24T18:49:50.331Z,100776.03
2022-10-24T18:52:28.533Z,100778.22
2022-10-24T18:55:02.158Z,100778.06
2022-10-24T18:57:49.183Z,100796.28
2022-10-24T19:00:22.163Z,100774.38
2022-10-24T19:03:41.600Z,100801.63
2022-10-24T19:10:08.164Z,100809.97
2022-10-24T19:12:36.976Z,100801.75
2022-10-24T19:15:06.944Z,100803.22
2022-10-24T19:17:38.135Z,100792.44
2022-10-24T19:20:15.002Z,100809.09
2022-10-24T19:22:58.424Z,100818.78
2022-10-24T19:25:36.120Z,100805.91
2022-10-24T19:30:57.328Z,100815.31
2022-10-24T19:39:08.837Z,100825.78
2022-10-24T19:41:58.323Z,100818.91
2022-10-24T19:44:28.143Z,100817.75
2022-10-24T19:47:05.867Z,100831.50
2022-10-24T19:49:34.072Z,100826.66
2022-10-24T19:52:03.468Z,100815.50
2022-10-24T19:54:41.812Z,100831.84
2022-10-24T19:57:12.374Z,100819.56
2022-10-24T20:00:03.779Z,100829.22
2022-10-24T20:02:48.923Z,100833.94
2022-10-24T20:05:17.342Z,100825.97
2022-10-24T20:07:48.944Z,100825.97
2022-10-24T20:10:30.857Z,100829.75
2022-10-24T20:12:59.001Z,100842.84
2022-10-24T20:15:29.498Z,100833.97
2022-10-24T20:18:07.027Z,100827.84
2022-10-24T20:20:38.503Z,100839.22
2022-10-24T20:23:27.673Z,100844.72
2022-10-24T20:26:28.141Z,100837.03
2022-10-24T20:28:57.398Z,100840.56
2022-10-24T20:34:12.619Z,100832.38
2022-10-24T20:36:48.180Z,100822.72
2022-10-24T20:39:46.682Z,100825.59
2022-10-24T20:42:20.917Z,100851.97
2022-10-24T20:45:10.253Z,100854.47
2022-10-24T20:47:47.946Z,100838.63
2022-10-24T20:53:24.147Z,100860.81
2022-10-24T20:56:41.152Z,100870.97
2022-10-24T21:02:13.606Z,100870.81
2022-10-24T21:04:57.949Z,100855.81
2022-10-24T21:07:26.010Z,100882.28
2022-10-24T21:10:09.186Z,100870.63
2022-10-24T21:13:00.782Z,100883.28
2022-10-24T21:21:52.365Z,100888.69
2022-10-24T21:24:33.756Z,100897.19
2022-10-24T21:27:49.913Z,100890.53
2022-10-24T21:33:58.274Z,100899.03
2022-10-24T21:36:26.430Z,100901.22
2022-10-24T21:39:13.290Z,100882.75
2022-10-24T21:41:41.467Z,100877.72
2022-10-24T21:44:09.777Z,100897.25
2022-10-24T21:52:48.445Z,100907.25
2022-10-24T21:55:16.883Z,100917.28
2022-10-24T21:57:46.249Z,100891.63
2022-10-24T22:00:31.202Z,100904.31
2022-10-24T22:03:12.219Z,100924.16
2022-10-24T22:05:40.899Z,100918.00
2022-10-24T22:08:22.802Z,100908.69
2022-10-24T22:11:48.307Z,100908.03
2022-10-24T22:14:40.723Z,100917.09
2022-10-24T22:17:08.867Z,100923.25
2022-10-24T22:19:38.353Z,100936.44
2022-10-24T22:22:06.570Z,100938.13
2022-10-24T22:24:40.323Z,100923.06
2022-10-24T22:30:33.377Z,100948.47
2022-10-24T22:33:01.946Z,100939.78
2022-10-24T22:35:32.496Z,100944.28
2022-10-24T22:38:00.978Z,100946.44
2022-10-24T22:40:41.992Z,100955.13
2022-10-24T22:43:10.716Z,100946.28
2022-10-24T22:45:52.623Z,100952.13
2022-10-24T22:48:23.068Z,100942.94
2022-10-24T22:50:53.746Z,100963.81
2022-10-24T22:53:23.915Z,100961.81
2022-10-24T22:59:26.140Z,100966.19
2022-10-24T23:02:25.606Z,100967.81
2022-10-24T23:04:59.639Z,100971.84
2022-10-24T23:07:35.120Z,100960.16
2022-10-24T23:10:03.409Z,100945.16
2022-10-24T23:12:47.056Z,100951.84
2022-10-24T23:15:16.132Z,100978.19
2022-10-24T23:17:44.655Z,100977.56
2022-10-24T23:20:23.070Z,100962.53
2022-10-24T23:23:17.069Z,100979.53
2022-10-24T23:26:12.993Z,100977.19
2022-10-24T23:28:46.386Z,100962.84
2022-10-24T23:31:18.167Z,100973.50
2022-10-24T23:33:47.045Z,100952.50
2022-10-24T23:36:45.419Z,100985.19
2022-10-24T23:39:32.156Z,100983.88
2022-10-24T23:42:00.959Z,100985.56
2022-10-24T23:44:29.595Z,100977.19
2022-10-24T23:47:00.027Z,100986.06
2022-10-24T23:49:39.953Z,100996.06
2022-10-24T23:52:16.160Z,101005.75
2022-10-24T23:54:47.851Z,100989.41
2022-10-24T23:57:17.537Z,100975.19
2022-10-24T23:59:46.033Z,101001.41
